AirNav   Air Wisconsin Up To $57,000 Bonus
 
 1696 users online  

NK16 Hendricks Field Airport
Gouverneur, New York, USA

GOING TO GOUVERNEUR?


FAA INFORMATION EFFECTIVE 11 AUGUST 2022

Location

FAA Identifier: NK16
Lat/Long: 44-22-05.2210N 075-24-08.7700W
44-22.087017N 075-24.146167W
44.3681169,-75.4024361
(estimated)
Elevation: 480 ft. / 146.3 m (surveyed)
Variation: 14W (1985)
From city: 3 miles NE of GOUVERNEUR, NY
Time zone: UTC -4 (UTC -5 during Standard Time)
Zip code: 13642

Airport Operations

Airport use: Private use. Permission required prior to landing
Activation date: 08/1977
Control tower: no
ARTCC: BOSTON CENTER
FSS: BURLINGTON FLIGHT SERVICE STATION
Attendance: UNATNDD
Wind indicator: yes
Segmented circle: no

Airport Communications

UNICOM: 122.8
WX AWOS-3 at OGS (19 nm N): 118.525 (315-393-8982)

Nearby radio navigation aids

VOR radial/distance  VOR name  Freq  Var
ARTr061/37.9WATERTOWN VORTAC109.8012W

 
NDB name  Hdg/Dist  Freq  Var  ID
POTSDAM240/30.840014WPTD .--. - -..

Airport Services

Parking: tiedowns
Airframe service: NONE
Powerplant service: NONE
Bottled oxygen: NONE
Bulk oxygen: NONE

Runway Information

Runway 5/23

Dimensions: 2520 x 70 ft. / 768 x 21 m
RY 05/23 WIDTH VARIES 70-80 FT.
Surface: turf, in good condition
SOFT & WET DURG SPRING THAW MAR-MAY; FOR RWY CONDS CALL 315-263-8473.
RUNWAY 5  RUNWAY 23
Traffic pattern: leftleft
Markings: nonenone
Obstructions: 4 ft. fence, 85 ft. right of centerline
RY 05 +35 FT TREE 85 FT FM THLD 78 FT RIGHT.
23 ft. trees, 69 ft. left of centerline

Airport Ownership and Management from official FAA records

Ownership: Privately-owned
Owner: LEE'S MOBILE ELECTRIC SERVICE
654H SCOTCH SETTLEMENT ROAD
GOUVERNEUR, NY 13642
Phone 315-263-8473
Manager: MARK HENDRICK
654H SCOTCH SETTLEMENT ROAD
GOUVERNEUR, NY 13642
Phone 315-263-8473

Airport Operational Statistics

Aircraft based on the field: 2
Single engine airplanes: 1
Ultralights: 1
    
Aircraft operations: 145/year *
69% local general aviation
31% transient general aviation
* for 12-month period ending 22 August 2002

Additional Remarks

DEER ON & INVOF ARPT.
FENCE PARALLEL TO RY RIGHT SIDE.
RY 23 TWO TWRS LCTD LEFT DOWNWIND LEG.
FOR CD CTC BOSTON ARTCC AT 603-879-6859.

Instrument Procedures

There are no published instrument procedures at NK16.

Some nearby airports with instrument procedures:

KOGS - Ogdensburg International Airport (19 nm N)
KGTB - Wheeler-Sack Army Airfield (23 nm SW)
KPTD - Potsdam Municipal Airport/Damon Field (27 nm NE)
KART - Watertown International Airport (35 nm SW)
KMSS - Massena International Airport-Richards Field (42 nm NE)
 
Loc | Ops | Rwys | IFR | FBO | Links
Com | Nav | Svcs | Stats | Notes
Area around NK16 (Hendricks Field Airport)
 
Road maps at: MapQuest Bing Google
 
Aerial photo
WARNING: Photo may not be current or correct
Aerial photo of NK16 (Hendricks Field Airport)
Photo by Graeme J. W. Smith
Taken late March 2013
looking southwest.

Do you have a better or more recent aerial photo of Hendricks Field Airport that you would like to share? If so, please send us your photo.

 
Sectional chart

 
Airport distance calculator
Flying to Hendricks Field Airport? Find the distance to fly.

From to NK16

Sunrise and sunset
Times for 17-Aug-2022
 Local
(UTC-4)
 Zulu
(UTC)
Morning civil twilight05:3709:37
Sunrise06:0810:08
Sunset20:0300:03
Evening civil twilight20:3500:35

Current date and time
Zulu (UTC)  17-Aug-2022 21:06:30
Local (UTC-4)  17-Aug-2022 17:06:30
 
METAR
KOGS 
18nm N 
172055Z AUTO VRB05KT 10SM CLR 26/16 A2998 RMK AO2
CWGH 
19nm W 
172000Z AUTO 05005KT 27/16 RMK AO1 SLP159 T02670156 58017
KGTB 
24nm SW 
172056Z 16005KT 10SM BKN130 23/12 A2999 RMK AO2A DZB10E28 SLP153 P0000 60000 T02260116 55007 FZRANO $
KPTD 
27nm NE 
172055Z AUTO 04007G13KT 10SM CLR 24/16 A3000 RMK AO2
KART 
36nm SW 
172056Z AUTO 00000KT 10SM FEW100 21/18 A3000 RMK AO2 RAE46 TSB27E42 SLP155 P0038 60043 T02060178 55006
TAF
KGTB 
24nm SW 
171752Z 1717/1823 VRB06KT 9999 FEW050 SCT120 BKN200 QNH3002INS TEMPO 1719/1720 4800 -TSRA BKN050CB BECMG 1719/1720 VRB06KT 9999 FEW050 SCT080 OVC120 QNH2994INS TEMPO 1720/1724 4800 -TSRA BKN050CB BECMG 1808/1809 VRB06KT 6000 BR SCT020 OVC040 QNH2989INS BECMG 1817/1818 33012KT 9999 NSW FEW040 BKN150 QNH2989INS TX28/1718Z TN15/1809Z
NOTAMs
Click for the latest NOTAMs
NOTAMs are issued by the DoD/FAA and will open in a separate window not controlled by AirNav.

 

 
 

Would you like to see your business listed on this page?

 If your business provides an interesting product or service to pilots, flight crews, aircraft, or users of the Hendricks Field Airport, you should consider listing it here.  To start the listing process, click on the button below
 
Add a business
 

Other Pages about Hendricks Field Airport

Update a link
 
Copyright © AirNav, LLC. All rights reserved. Privacy Policy  Contact